Time;durP1;ratioP1;P1;durP2;ratioP2;P2;SDS_P1;SDS_P2;PMS_P1;PMS_P2;Temp;Humidity;BMP_temperature;BMP_pressure;BME280_temperature;BME280_humidity;BME280_pressure;Samples;Min_cycle;Max_cycle;Signal;HPM_P1;HPM_P2
2022/11/21 00:01:01;;;;;;;0.00;0.00;;;4.20;99.90;;;;;;5025124;28;20029;-69
2022/11/21 00:03:26;;;;;;;0.00;0.00;;;4.00;99.90;;;;;;5033106;28;20033;-69
2022/11/21 00:05:52;;;;;;;0.00;0.00;;;4.00;99.90;;;;;;5041228;28;20025;-68
2022/11/21 00:08:20;;;;;;;0.00;0.00;;;4.00;99.90;;;;;;5010836;28;20079;-69
2022/11/21 00:10:47;;;;;;;0.00;0.00;;;4.00;99.90;;;;;;5015222;28;20137;-71
2022/11/21 00:13:15;;;;;;;0.00;0.00;;;4.00;99.90;;;;;;5015915;28;20033;-71
2022/11/21 00:15:41;;;;;;;0.00;0.00;;;4.00;99.90;;;;;;5013313;28;20109;-72
2022/11/21 00:18:06;;;;;;;0.00;0.00;;;4.00;99.90;;;;;;5022561;28;20428;-72
2022/11/21 00:20:35;;;;;;;0.00;0.00;;;4.00;99.90;;;;;;5026902;28;20064;-70
2022/11/21 00:23:02;;;;;;;0.00;0.00;;;3.90;99.90;;;;;;5015954;28;20108;-72
2022/11/21 00:25:28;;;;;;;0.00;0.00;;;3.90;99.90;;;;;;5017867;28;20072;-71
2022/11/21 00:27:54;;;;;;;0.00;0.00;;;4.00;99.90;;;;;;5029229;28;20053;-70
2022/11/21 00:30:19;;;;;;;0.00;0.00;;;4.00;99.90;;;;;;5016542;28;20033;-66
2022/11/21 00:32:45;;;;;;;0.00;0.00;;;4.00;99.90;;;;;;5014910;28;20108;-68
2022/11/21 00:35:11;;;;;;;0.00;0.00;;;4.00;99.90;;;;;;5008848;28;20033;-69
2022/11/21 00:37:36;;;;;;;0.00;0.00;;;4.10;99.90;;;;;;5014391;28;20041;-67
2022/11/21 00:40:02;;;;;;;0.00;0.00;;;4.10;99.90;;;;;;5008155;28;20529;-67
2022/11/21 00:42:28;;;;;;;0.00;0.00;;;4.10;99.90;;;;;;5008406;28;20021;-69
2022/11/21 00:44:53;;;;;;;0.00;0.00;;;4.00;99.90;;;;;;5014141;28;20021;-65
2022/11/21 00:47:19;;;;;;;0.00;0.00;;;3.80;99.90;;;;;;5009172;28;20018;-67
2022/11/21 00:49:45;;;;;;;0.00;0.00;;;3.80;99.90;;;;;;5013151;28;20419;-71
2022/11/21 00:52:10;;;;;;;0.00;0.00;;;3.80;99.90;;;;;;5015337;28;20076;-68
2022/11/21 00:54:36;;;;;;;0.00;0.00;;;3.80;99.90;;;;;;5014783;28;20026;-67
2022/11/21 00:57:01;;;;;;;0.00;0.00;;;3.80;99.90;;;;;;5021789;28;20465;-66
2022/11/21 00:59:27;;;;;;;0.00;0.00;;;4.00;99.90;;;;;;5014992;28;20056;-67
2022/11/21 01:01:53;;;;;;;0.00;0.00;;;4.00;99.90;;;;;;5012621;28;20109;-68
2022/11/21 01:04:18;;;;;;;0.00;0.00;;;4.00;99.90;;;;;;5011067;28;20514;-66
2022/11/21 01:06:44;;;;;;;0.00;0.00;;;4.00;99.90;;;;;;5012503;28;20040;-68
2022/11/21 01:09:10;;;;;;;0.00;0.00;;;3.90;99.90;;;;;;5014871;28;20550;-68
2022/11/21 01:11:35;;;;;;;0.00;0.00;;;4.00;99.90;;;;;;5018318;28;20057;-68
2022/11/21 01:14:01;;;;;;;0.00;0.00;;;4.00;99.90;;;;;;5012836;28;20495;-69
2022/11/21 01:16:28;;;;;;;0.00;0.00;;;4.00;99.90;;;;;;5032088;28;20029;-67
2022/11/21 01:18:54;;;;;;;0.00;0.00;;;4.00;99.90;;;;;;5015872;28;20053;-68
2022/11/21 01:21:26;;;;;;;0.00;0.00;;;3.90;99.90;;;;;;5014396;28;20058;-68
2022/11/21 01:23:52;;;;;;;0.00;0.00;;;4.00;99.90;;;;;;5021278;28;20108;-67
2022/11/21 01:26:19;;;;;;;;;;;4.00;99.90;;;;;;5021404;28;20046;-67
2022/11/21 01:28:45;;;;;;;0.00;0.00;;;3.80;99.90;;;;;;5045996;28;19919;-67
2022/11/21 01:31:13;;;;;;;0.00;0.00;;;3.60;99.90;;;;;;5017311;28;20037;-67
2022/11/21 01:33:39;;;;;;;0.00;0.00;;;3.60;99.90;;;;;;5018078;28;20257;-67
2022/11/21 01:36:14;;;;;;;0.00;0.00;;;3.60;99.90;;;;;;5015460;28;20037;-67
2022/11/21 01:38:41;;;;;;;0.00;0.00;;;3.70;99.90;;;;;;5010254;28;20052;-68
2022/11/21 01:41:07;;;;;;;0.00;0.00;;;3.60;99.90;;;;;;5012681;28;20033;-68
2022/11/21 01:43:33;;;;;;;0.00;0.00;;;3.60;99.90;;;;;;5012309;28;20454;-66
2022/11/21 01:46:08;;;;;;;0.00;0.00;;;3.70;99.90;;;;;;5016560;28;20037;-66
2022/11/21 01:48:42;;;;;;;0.00;0.00;;;3.70;99.90;;;;;;5008870;28;20053;-67
2022/11/21 01:51:20;;;;;;;0.00;0.00;;;3.70;99.90;;;;;;5009469;28;20038;-66
2022/11/21 01:54:08;;;;;;;0.00;0.00;;;3.70;99.90;;;;;;5004159;28;20092;-66
2022/11/21 01:56:47;;;;;;;0.00;0.00;;;3.60;99.90;;;;;;5011357;28;20064;-67
2022/11/21 01:59:25;;;;;;;0.00;0.00;;;3.50;99.90;;;;;;5017848;28;20073;-67
2022/11/21 02:01:54;;;;;;;0.00;0.00;;;3.40;99.90;;;;;;5014595;28;20080;-66
2022/11/21 02:04:24;;;;;;;0.00;0.00;;;3.30;99.90;;;;;;5014177;28;20376;-67
2022/11/21 02:06:50;;;;;;;0.00;0.00;;;3.30;99.90;;;;;;5010791;28;20033;-66
2022/11/21 02:09:17;;;;;;;0.00;0.00;;;3.40;99.90;;;;;;5003870;28;20072;-66
2022/11/21 02:11:51;;;;;;;0.00;0.00;;;3.30;99.90;;;;;;5009110;28;20369;-66
2022/11/21 02:14:17;;;;;;;0.00;0.00;;;3.20;99.90;;;;;;5010925;28;20427;-67
2022/11/21 02:16:43;;;;;;;0.00;0.00;;;3.30;99.90;;;;;;5010757;28;20029;-66
2022/11/21 02:19:14;;;;;;;0.00;0.00;;;3.30;99.90;;;;;;5013477;28;20392;-67
2022/11/21 02:21:51;;;;;;;0.00;0.00;;;3.30;99.90;;;;;;5014399;28;20038;-66
2022/11/21 02:24:28;;;;;;;0.00;0.00;;;3.30;99.90;;;;;;5016924;28;20108;-66
2022/11/21 02:26:54;;;;;;;0.00;0.00;;;3.20;99.90;;;;;;5010351;28;20116;-66
2022/11/21 02:29:20;;;;;;;0.00;0.00;;;3.20;99.90;;;;;;5016369;28;20104;-66
2022/11/21 02:31:45;;;;;;;0.00;0.00;;;3.20;99.90;;;;;;5013381;28;20041;-66
2022/11/21 02:34:11;;;;;;;0.00;0.00;;;3.20;99.90;;;;;;5015735;28;20040;-66
2022/11/21 02:36:45;;;;;;;0.00;0.00;;;3.20;99.90;;;;;;5010368;28;20065;-66
2022/11/21 02:39:28;;;;;;;0.00;0.00;;;3.50;99.90;;;;;;5011023;28;20380;-66
2022/11/21 02:42:05;;;;;;;0.00;0.00;;;3.50;99.90;;;;;;5011492;28;20030;-66
2022/11/21 02:44:52;;;;;;;0.00;0.00;;;3.50;99.90;;;;;;5011078;28;20510;-67
2022/11/21 02:47:21;;;;;;;0.00;0.00;;;3.40;99.90;;;;;;5005212;28;20026;-66
2022/11/21 02:49:59;;;;;;;0.00;0.00;;;3.30;99.90;;;;;;5010686;28;20033;-66
2022/11/21 02:52:25;;;;;;;0.00;0.00;;;3.40;99.90;;;;;;5009092;28;20506;-67
2022/11/21 02:54:51;;;;;;;0.00;0.00;;;3.50;99.90;;;;;;5016465;28;20120;-66
2022/11/21 02:57:16;;;;;;;0.00;0.00;;;3.50;99.90;;;;;;5005309;28;20032;-66
2022/11/21 02:59:42;;;;;;;0.00;0.00;;;3.60;99.90;;;;;;5013212;28;20338;-67
2022/11/21 03:02:07;;;;;;;0.00;0.00;;;3.60;99.90;;;;;;5010208;28;20041;-67
2022/11/21 03:04:33;;;;;;;0.00;0.00;;;3.70;99.90;;;;;;5007243;28;20030;-67
2022/11/21 03:06:59;;;;;;;0.00;0.00;;;3.70;99.90;;;;;;5008500;28;20037;-66
2022/11/21 03:09:25;;;;;;;0.00;0.00;;;3.70;99.90;;;;;;5006898;28;20032;-66
2022/11/21 03:11:50;;;;;;;0.00;0.00;;;3.90;99.90;;;;;;4988573;28;20038;-69
2022/11/21 03:14:16;;;;;;;0.00;0.00;;;4.00;99.90;;;;;;5003688;28;20054;-67
2022/11/21 03:16:41;;;;;;;0.00;0.00;;;4.00;99.90;;;;;;5002804;28;20069;-66
2022/11/21 03:19:07;;;;;;;0.00;0.00;;;4.00;99.90;;;;;;5009074;28;20041;-66
2022/11/21 03:21:33;;;;;;;0.00;0.00;;;4.00;99.90;;;;;;5015739;28;20523;-68
2022/11/21 03:23:58;;;;;;;0.00;0.00;;;4.00;99.90;;;;;;5009295;28;20026;-67
2022/11/21 03:26:25;;;;;;;0.00;0.00;;;3.90;99.90;;;;;;5011304;28;20085;-67
2022/11/21 03:28:50;;;;;;;0.00;0.00;;;3.90;99.90;;;;;;5009239;28;20029;-66
2022/11/21 03:31:16;;;;;;;0.00;0.00;;;3.60;99.90;;;;;;5006046;28;20439;-67
2022/11/21 03:33:42;;;;;;;0.00;0.00;;;3.60;99.90;;;;;;5008891;28;20212;-67
2022/11/21 03:36:07;;;;;;;0.00;0.00;;;3.50;99.90;;;;;;5008316;28;20428;-67
2022/11/21 03:38:33;;;;;;;0.00;0.00;;;3.50;99.90;;;;;;5007289;28;20049;-67
2022/11/21 03:41:28;;;;;;;0.00;0.00;;;3.40;99.90;;;;;;5008480;28;20034;-68
2022/11/21 03:43:51;;;;;;;0.00;0.00;;;3.40;99.90;;;;;;5010084;28;20041;-67
2022/11/21 03:46:16;;;;;;;0.00;0.00;;;3.40;99.90;;;;;;5011546;28;20037;-67
2022/11/21 03:48:42;;;;;;;0.00;0.00;;;3.30;99.90;;;;;;5013332;28;20040;-67
2022/11/21 03:51:07;;;;;;;0.00;0.00;;;3.50;99.90;;;;;;5010256;28;20026;-68
2022/11/21 03:53:33;;;;;;;0.00;0.00;;;3.50;99.90;;;;;;5023139;28;20406;-66
2022/11/21 03:55:59;;;;;;;0.00;0.00;;;3.60;99.90;;;;;;5012929;28;20038;-66
2022/11/21 03:58:24;;;;;;;0.00;0.00;;;3.60;99.90;;;;;;5013475;28;20452;-66
2022/11/21 04:00:50;;;;;;;0.00;0.00;;;3.70;99.90;;;;;;5016335;28;20034;-67
2022/11/21 04:03:15;;;;;;;0.00;0.00;;;4.00;99.90;;;;;;5010009;28;20038;-66
2022/11/21 04:05:43;;;;;;;0.00;0.00;;;4.20;99.90;;;;;;5011547;28;20100;-67
2022/11/21 04:08:09;;;;;;;0.00;0.00;;;4.30;99.90;;;;;;5012510;28;20096;-67
2022/11/21 04:10:34;;;;;;;0.00;0.00;;;4.30;99.90;;;;;;5012171;28;20030;-67
2022/11/21 04:13:00;;;;;;;0.00;0.00;;;4.30;99.90;;;;;;5011208;28;20041;-68
2022/11/21 04:15:25;;;;;;;0.00;0.00;;;4.40;99.90;;;;;;5013187;28;20024;-67
2022/11/21 04:17:51;;;;;;;0.00;0.00;;;4.50;99.90;;;;;;5016214;28;20125;-67
2022/11/21 04:20:17;;;;;;;0.00;0.00;;;4.50;99.90;;;;;;5014714;28;20026;-67
2022/11/21 04:22:43;;;;;;;0.00;0.00;;;4.50;99.90;;;;;;5017232;28;20096;-66
2022/11/21 04:25:09;;;;;;;0.00;0.00;;;4.60;99.90;;;;;;5016762;28;20029;-66
2022/11/21 04:27:34;;;;;;;0.00;0.00;;;4.60;99.90;;;;;;5007491;28;20053;-68
2022/11/21 04:30:00;;;;;;;0.00;0.00;;;4.50;99.90;;;;;;5014560;28;20034;-68
2022/11/21 04:32:26;;;;;;;0.00;0.00;;;4.60;99.90;;;;;;5012229;28;20116;-67
2022/11/21 04:34:51;;;;;;;0.00;0.00;;;4.60;99.90;;;;;;5007846;28;20080;-67
2022/11/21 04:37:17;;;;;;;0.00;0.00;;;4.60;99.90;;;;;;5014261;28;20034;-67
2022/11/21 04:39:43;;;;;;;0.00;0.00;;;4.60;99.90;;;;;;5007962;28;20038;-68
2022/11/21 04:42:08;;;;;;;0.00;0.00;;;4.70;99.90;;;;;;5013707;28;20456;-67
2022/11/21 04:44:34;;;;;;;0.00;0.00;;;4.80;99.90;;;;;;5005165;28;20064;-68
2022/11/21 04:47:00;;;;;;;0.00;0.00;;;4.80;99.90;;;;;;5005511;28;20038;-68
2022/11/21 04:49:25;;;;;;;0.00;0.00;;;4.90;99.90;;;;;;5005019;28;20061;-68
2022/11/21 04:51:51;;;;;;;0.00;0.00;;;5.00;99.90;;;;;;5007441;28;20048;-68
2022/11/21 04:54:16;;;;;;;0.00;0.00;;;5.10;99.90;;;;;;5007646;28;20026;-67
2022/11/21 04:56:42;;;;;;;0.00;0.00;;;5.20;99.90;;;;;;5008126;28;20534;-67
2022/11/21 04:59:10;;;;;;;0.00;0.00;;;5.40;99.90;;;;;;5010240;28;20033;-68
2022/11/21 05:01:37;;;;;;;0.00;0.00;;;5.40;99.90;;;;;;5010239;28;20025;-68
2022/11/21 05:04:02;;;;;;;0.00;0.00;;;5.50;99.90;;;;;;5011389;28;20602;-69
2022/11/21 05:06:28;;;;;;;0.00;0.00;;;5.50;99.90;;;;;;5006689;28;20029;-67
2022/11/21 05:08:54;;;;;;;0.00;0.00;;;5.60;99.90;;;;;;5008870;28;20037;-68
2022/11/21 05:14:04;;;;;;;0.00;0.00;;;5.70;99.90;;;;;;5008951;28;20037;-67
2022/11/21 05:16:32;;;;;;;0.00;0.00;;;5.80;99.90;;;;;;5016201;28;20400;-68
2022/11/21 05:18:57;;;;;;;0.00;0.00;;;5.70;99.90;;;;;;5025511;28;20582;-68
2022/11/21 05:21:23;;;;;;;0.00;0.00;;;5.70;99.90;;;;;;5012993;28;20030;-68
2022/11/21 05:23:48;;;;;;;0.00;0.00;;;5.70;99.90;;;;;;5015820;28;20025;-67
2022/11/21 05:26:14;;;;;;;0.00;0.00;;;5.70;99.90;;;;;;5012731;28;20030;-68
2022/11/21 05:28:40;;;;;;;0.00;0.00;;;5.70;99.90;;;;;;5009406;28;20025;-67
2022/11/21 05:31:05;;;;;;;0.00;0.00;;;5.70;99.90;;;;;;5013512;28;20086;-68
2022/11/21 05:33:31;;;;;;;0.00;0.00;;;5.80;99.90;;;;;;5013036;28;20430;-68
2022/11/21 05:35:57;;;;;;;0.00;0.00;;;5.80;99.90;;;;;;5009961;28;20025;-67
2022/11/21 05:38:22;;;;;;;0.00;0.00;;;5.90;99.90;;;;;;5016220;28;20052;-67
2022/11/21 05:40:50;;;;;;;0.00;0.00;;;6.00;99.90;;;;;;5014445;28;20071;-67
2022/11/21 05:46:00;;;;;;;0.00;0.00;;;6.10;99.90;;;;;;5010591;28;20084;-68
2022/11/21 05:48:26;;;;;;;0.00;0.00;;;6.10;99.90;;;;;;5010212;28;20034;-68
2022/11/21 05:50:51;;;;;;;0.00;0.00;;;6.20;99.90;;;;;;5013320;28;20029;-67
2022/11/21 05:53:18;;;;;;;0.00;0.00;;;6.20;99.90;;;;;;5008434;28;20026;-68
2022/11/21 05:55:44;;;;;;;0.00;0.00;;;6.20;99.90;;;;;;5022674;28;20030;-68
2022/11/21 05:58:10;;;;;;;0.00;0.00;;;6.20;99.90;;;;;;5007437;28;20037;-67
2022/11/21 06:00:36;;;;;;;;;;;6.30;99.90;;;;;;5011925;28;20029;-68
2022/11/21 06:05:46;;;;;;;0.00;0.00;;;6.60;99.90;;;;;;5016853;28;20087;-68
2022/11/21 06:08:12;;;;;;;0.00;0.00;;;6.70;99.90;;;;;;5007004;28;20025;-68
2022/11/21 06:10:38;;;;;;;0.00;0.00;;;6.70;99.90;;;;;;5017378;28;20044;-67
2022/11/21 06:13:20;;;;;;;0.00;0.00;;;6.80;99.90;;;;;;5020199;28;20029;-68
2022/11/21 06:15:50;;;;;;;0.00;0.00;;;6.70;99.90;;;;;;5009349;28;20038;-68
2022/11/21 06:18:18;;;;;;;0.00;0.00;;;6.80;99.90;;;;;;5002770;28;20045;-68
2022/11/21 06:20:44;;;;;;;0.00;0.00;;;7.00;99.90;;;;;;5020685;28;20029;-67
2022/11/21 06:23:10;;;;;;;0.00;0.00;;;7.30;99.90;;;;;;5041318;28;20030;-68
2022/11/21 06:25:36;;;;;;;0.00;0.00;;;7.40;99.90;;;;;;5023722;28;20105;-68
2022/11/21 06:28:02;;;;;;;0.00;0.00;;;7.30;99.90;;;;;;5017825;28;20180;-69
2022/11/21 06:30:27;;;;;;;0.00;0.00;;;7.30;99.90;;;;;;5011395;28;20126;-68
2022/11/21 06:32:53;;;;;;;0.00;0.00;;;7.10;99.90;;;;;;5016847;28;20057;-67
2022/11/21 06:35:19;;;;;;;0.00;0.00;;;7.10;99.90;;;;;;5019210;28;20304;-67
2022/11/21 06:37:44;;;;;;;0.00;0.00;;;7.10;99.90;;;;;;5003859;28;20395;-67
2022/11/21 06:40:10;;;;;;;0.00;0.00;;;7.20;99.90;;;;;;5015989;28;20034;-67
2022/11/21 06:42:37;;;;;;;0.00;0.00;;;7.30;99.90;;;;;;5014033;28;20045;-68
2022/11/21 06:45:03;;;;;;;0.00;0.00;;;7.30;99.90;;;;;;5005104;28;20022;-68
2022/11/21 06:47:33;;;;;;;0.00;0.00;;;7.40;99.90;;;;;;5012134;28;20025;-69
2022/11/21 06:49:59;;;;;;;0.00;0.00;;;7.40;99.90;;;;;;5009179;28;20451;-67
2022/11/21 06:52:25;;;;;;;;;;;7.50;99.90;;;;;;5010471;28;20029;-68
2022/11/21 06:54:50;;;;;;;0.00;0.00;;;7.50;99.90;;;;;;5008341;28;20008;-68
2022/11/21 06:57:16;;;;;;;0.00;0.00;;;7.50;99.90;;;;;;5009292;28;20053;-68
2022/11/21 06:59:41;;;;;;;0.00;0.00;;;7.50;99.90;;;;;;5011689;28;20030;-68
2022/11/21 07:02:12;;;;;;;0.00;0.00;;;7.60;99.90;;;;;;5007536;28;20030;-67
2022/11/21 07:04:37;;;;;;;0.00;0.00;;;7.70;99.90;;;;;;5017378;28;20053;-67
2022/11/21 07:07:03;;;;;;;0.00;0.00;;;7.80;99.90;;;;;;5012816;28;20068;-67
2022/11/21 07:09:28;;;;;;;0.00;0.00;;;7.70;99.90;;;;;;5010615;28;20026;-68
2022/11/21 07:11:54;;;;;;;0.00;0.00;;;7.70;99.90;;;;;;5011031;28;20198;-67
2022/11/21 07:14:20;;;;;;;0.00;0.00;;;7.80;99.90;;;;;;5026169;28;20064;-68
2022/11/21 07:16:45;;;;;;;0.00;0.00;;;7.80;99.90;;;;;;5011037;28;20609;-68
2022/11/21 07:19:11;;;;;;;0.00;0.00;;;7.80;99.90;;;;;;5012219;28;20102;-68
2022/11/21 07:21:37;;;;;;;0.00;0.00;;;7.80;99.90;;;;;;5016079;28;20033;-67
2022/11/21 07:24:03;;;;;;;0.00;0.00;;;7.80;99.90;;;;;;5025897;28;20053;-68
2022/11/21 07:26:30;;;;;;;0.00;0.00;;;7.80;99.90;;;;;;5009785;28;20036;-67
2022/11/21 07:28:57;;;;;;;0.00;0.00;;;7.60;99.90;;;;;;5012650;28;20022;-67
2022/11/21 07:31:22;;;;;;;0.00;0.00;;;7.60;99.90;;;;;;5013016;28;20065;-69
2022/11/21 07:33:48;;;;;;;0.00;0.00;;;7.60;99.90;;;;;;5010680;28;20557;-69
2022/11/21 07:36:13;;;;;;;0.00;0.00;;;7.60;99.90;;;;;;5003105;28;20026;-68
2022/11/21 07:38:40;;;;;;;0.00;0.00;;;7.60;99.90;;;;;;5011766;28;20042;-67
2022/11/21 07:41:05;;;;;;;;;;;7.50;99.90;;;;;;5023182;28;20423;-68
2022/11/21 07:43:31;;;;;;;0.00;0.00;;;7.40;99.90;;;;;;5010441;28;19924;-67
2022/11/21 07:45:56;;;;;;;0.00;0.00;;;7.60;99.90;;;;;;5006524;28;20480;-68
2022/11/21 07:48:22;;;;;;;0.00;0.00;;;7.70;99.90;;;;;;5007190;28;20292;-67
2022/11/21 07:50:48;;;;;;;0.00;0.00;;;7.70;99.90;;;;;;5004386;28;20113;-68
2022/11/21 07:53:14;;;;;;;0.00;0.00;;;7.70;99.90;;;;;;5004448;28;20037;-67
2022/11/21 07:55:39;;;;;;;0.00;0.00;;;7.60;99.90;;;;;;5020456;28;20037;-69
2022/11/21 07:58:11;;;;;;;0.00;0.00;;;7.80;99.90;;;;;;5022698;28;20487;-68
2022/11/21 08:00:39;;;;;;;0.00;0.00;;;7.90;99.90;;;;;;5013273;28;20527;-67
2022/11/21 08:03:08;;;;;;;0.00;0.00;;;8.00;99.90;;;;;;5009873;28;20464;-69
2022/11/21 08:05:38;;;;;;;0.00;0.00;;;8.10;99.90;;;;;;5012256;28;20091;-68
2022/11/21 08:08:05;;;;;;;0.00;0.00;;;8.00;99.90;;;;;;5014026;28;20525;-68
2022/11/21 08:10:31;;;;;;;0.00;0.00;;;8.00;99.90;;;;;;5011967;28;20030;-68
2022/11/21 08:12:57;;;;;;;0.00;0.00;;;8.00;99.90;;;;;;5029529;28;20028;-68
2022/11/21 08:15:22;;;;;;;0.00;0.00;;;8.10;99.90;;;;;;5020815;28;20040;-68
2022/11/21 08:17:48;;;;;;;0.00;0.00;;;8.40;99.90;;;;;;5031160;28;20503;-67
2022/11/21 08:20:14;;;;;;;0.00;0.00;;;8.60;99.90;;;;;;5021393;28;20414;-68
2022/11/21 08:22:40;;;;;;;0.00;0.00;;;8.60;99.90;;;;;;5031644;28;20033;-67
2022/11/21 08:25:08;;;;;;;0.00;0.00;;;8.50;99.90;;;;;;5033955;28;20113;-67
2022/11/21 08:27:34;;;;;;;0.00;0.00;;;8.50;99.90;;;;;;5037989;28;20033;-67
2022/11/21 08:29:59;;;;;;;0.00;0.00;;;8.30;99.90;;;;;;5031062;28;20029;-67
2022/11/21 08:32:25;;;;;;;0.00;0.00;;;8.40;99.90;;;;;;5031245;28;20043;-67
2022/11/21 08:34:51;;;;;;;0.00;0.00;;;8.40;99.90;;;;;;5033441;28;20040;-67
2022/11/21 08:37:16;;;;;;;0.00;0.00;;;8.40;99.90;;;;;;5021576;28;20037;-67
2022/11/21 08:39:42;;;;;;;0.00;0.00;;;8.50;99.90;;;;;;5048168;28;20168;-68
2022/11/21 08:42:09;;;;;;;0.00;0.00;;;8.50;99.90;;;;;;5015233;28;20345;-68
2022/11/21 08:44:34;;;;;;;0.00;0.00;;;8.60;99.90;;;;;;5007586;28;20037;-67
2022/11/21 08:47:01;;;;;;;0.00;0.00;;;8.60;99.90;;;;;;5047410;28;20037;-68
2022/11/21 08:49:27;;;;;;;;;;;8.80;99.90;;;;;;5033692;28;20029;-67
2022/11/21 08:51:53;;;;;;;0.00;0.00;;;9.00;99.90;;;;;;5032932;28;20239;-68
2022/11/21 08:54:21;;;;;;;0.00;0.00;;;9.00;99.90;;;;;;5013736;28;20082;-69
2022/11/21 08:56:48;;;;;;;0.00;0.00;;;9.10;99.90;;;;;;5013822;28;20026;-68
2022/11/21 08:59:14;;;;;;;0.00;0.00;;;9.10;99.90;;;;;;5007604;28;20034;-67
2022/11/21 09:01:40;;;;;;;;;;;9.10;99.90;;;;;;5008176;28;20376;-68
2022/11/21 09:04:06;;;;;;;0.00;0.00;;;9.20;99.90;;;;;;5022124;28;19965;-68
2022/11/21 09:06:32;;;;;;;0.00;0.00;;;9.10;99.90;;;;;;5017387;28;20116;-68
2022/11/21 09:08:58;;;;;;;0.00;0.00;;;9.10;99.90;;;;;;5024138;28;20022;-68
2022/11/21 09:11:24;;;;;;;0.00;0.00;;;9.20;99.90;;;;;;5006840;28;20356;-68
2022/11/21 09:19:21;;;;;;;0.00;0.00;;;9.40;99.90;;;;;;5010701;28;20076;-68
2022/11/21 09:21:53;;;;;;;0.00;0.00;;;9.40;99.90;;;;;;5013225;28;20070;-68
2022/11/21 09:24:19;;;;;;;0.00;0.00;;;9.40;99.90;;;;;;5011204;28;20068;-68
2022/11/21 09:26:47;;;;;;;0.00;0.00;;;9.40;99.90;;;;;;5009665;28;20060;-68
2022/11/21 09:29:16;;;;;;;0.00;0.00;;;9.40;99.90;;;;;;5026998;28;20032;-69
2022/11/21 09:31:45;;;;;;;0.00;0.00;;;9.30;99.90;;;;;;5010570;28;20022;-69
2022/11/21 09:34:13;;;;;;;0.00;0.00;;;9.30;99.90;;;;;;5011842;28;20475;-68
2022/11/21 09:36:38;;;;;;;0.00;0.00;;;9.30;99.90;;;;;;5006775;28;20034;-69
2022/11/21 09:39:04;;;;;;;0.00;0.00;;;9.40;99.90;;;;;;5009913;28;20393;-68
2022/11/21 09:41:51;;;;;;;0.00;0.00;;;9.40;99.90;;;;;;5012809;28;20138;-67
2022/11/21 09:44:35;;;;;;;;;;;9.30;99.90;;;;;;5006493;28;20026;-69
2022/11/21 09:47:27;;;;;;;0.00;0.00;;;9.30;99.90;;;;;;5005106;28;19924;-68
2022/11/21 09:50:24;;;;;;;0.00;0.00;;;9.30;99.90;;;;;;5012388;28;20408;-68
2022/11/21 09:53:06;;;;;;;0.00;0.00;;;9.40;99.90;;;;;;5009179;28;20045;-68
2022/11/21 09:55:47;;;;;;;0.00;0.00;;;9.40;99.90;;;;;;5024646;28;20068;-69
2022/11/21 09:58:25;;;;;;;0.00;0.00;;;9.30;99.90;;;;;;5010900;28;20062;-68
2022/11/21 10:00:53;;;;;;;0.00;0.00;;;9.20;99.90;;;;;;5011454;28;20033;-68
2022/11/21 10:03:27;;;;;;;0.00;0.00;;;9.20;99.90;;;;;;5008367;28;20072;-69
2022/11/21 10:06:10;;;;;;;0.00;0.00;;;9.40;99.90;;;;;;5009267;28;20014;-68
2022/11/21 10:08:54;;;;;;;0.00;0.00;;;9.40;99.90;;;;;;5005688;28;20041;-70
2022/11/21 10:12:35;;;;;;;0.00;0.00;;;9.40;99.90;;;;;;5005374;28;20026;-68
2022/11/21 10:14:40;;;;;;;0.00;0.00;;;9.50;99.90;;;;;;5009918;28;20049;-67
2022/11/21 10:17:12;;;;;;;0.00;0.00;;;9.50;99.90;;;;;;5013030;28;20057;-69
2022/11/21 10:20:13;;;;;;;0.00;0.00;;;9.60;99.90;;;;;;5011570;28;20038;-67
2022/11/21 10:22:55;;;;;;;0.00;0.00;;;9.60;99.90;;;;;;5021290;28;20026;-68
2022/11/21 10:25:36;;;;;;;0.00;0.00;;;9.60;99.90;;;;;;5020909;28;20026;-68
2022/11/21 10:28:26;;;;;;;0.00;0.00;;;9.60;99.90;;;;;;5010082;28;20536;-69
2022/11/21 10:30:54;;;;;;;0.00;0.00;;;9.60;99.90;;;;;;5017465;28;20109;-69
2022/11/21 10:33:57;;;;;;;0.00;0.00;;;9.60;99.90;;;;;;5003485;28;20029;-69
2022/11/21 10:36:37;;;;;;;0.00;0.00;;;9.70;99.90;;;;;;5003034;28;20478;-68
2022/11/21 10:39:24;;;;;;;0.00;0.00;;;9.70;99.90;;;;;;5025626;28;20045;-68
2022/11/21 10:42:08;;;;;;;0.00;0.00;;;9.70;99.90;;;;;;5006208;28;20056;-69
2022/11/21 10:47:26;;;;;;;0.00;0.00;;;9.70;99.90;;;;;;5007597;28;20088;-68
2022/11/21 10:50:07;;;;;;;0.00;0.00;;;9.70;99.90;;;;;;5005883;28;20034;-68
2022/11/21 10:52:38;;;;;;;0.00;0.00;;;9.80;99.90;;;;;;5003505;28;20034;-68
2022/11/21 10:55:09;;;;;;;0.00;0.00;;;9.80;99.90;;;;;;5011330;28;20029;-69
2022/11/21 10:57:43;;;;;;;0.00;0.00;;;9.80;99.90;;;;;;5024581;28;20072;-68
2022/11/21 11:00:11;;;;;;;0.00;0.00;;;9.80;99.90;;;;;;5009611;28;20155;-68
2022/11/21 11:02:39;;;;;;;0.00;0.00;;;9.90;99.90;;;;;;5012831;28;20022;-68
2022/11/21 11:05:25;;;;;;;0.00;0.00;;;9.90;99.90;;;;;;5011781;28;20024;-69
2022/11/21 11:08:09;;;;;;;0.00;0.00;;;10.00;99.90;;;;;;5010055;28;20148;-68
2022/11/21 11:10:40;;;;;;;0.00;0.00;;;10.00;99.90;;;;;;5006194;28;20357;-68
2022/11/21 11:13:32;;;;;;;0.00;0.00;;;10.10;99.90;;;;;;5009930;28;20151;-67
2022/11/21 11:16:24;;;;;;;0.00;0.00;;;10.20;99.90;;;;;;5009951;28;20026;-69
2022/11/21 11:19:27;;;;;;;0.00;0.00;;;10.20;99.90;;;;;;5025364;28;20515;-69
2022/11/21 11:21:55;;;;;;;0.00;0.00;;;10.20;99.90;;;;;;4965822;28;20037;-68
2022/11/21 11:24:27;;;;;;;0.00;0.00;;;10.30;99.90;;;;;;5011997;28;20040;-68
2022/11/21 11:27:02;;;;;;;0.00;0.00;;;10.20;99.90;;;;;;5007036;28;20060;-68
2022/11/21 11:29:31;;;;;;;0.00;0.00;;;10.30;99.90;;;;;;5005701;28;20026;-68
2022/11/21 11:32:11;;;;;;;0.00;0.00;;;10.30;99.90;;;;;;5007440;28;20030;-68
2022/11/21 11:34:59;;;;;;;0.00;0.00;;;10.40;99.90;;;;;;5010575;28;20033;-68
2022/11/21 11:37:24;;;;;;;;;;;10.40;99.90;;;;;;5011249;28;20130;-69
2022/11/21 11:40:02;;;;;;;0.00;0.00;;;10.50;99.90;;;;;;5008933;28;20045;-67
2022/11/21 11:48:28;;;;;;;0.00;0.00;;;10.30;99.90;;;;;;5010706;28;20064;-68
2022/11/21 11:51:08;;;;;;;0.00;0.00;;;10.30;99.90;;;;;;5009324;28;20064;-68
2022/11/21 11:53:38;;;;;;;0.00;0.00;;;10.30;99.90;;;;;;5008788;28;20080;-68
2022/11/21 11:56:12;;;;;;;0.00;0.00;;;10.20;99.90;;;;;;5008455;28;20041;-69
2022/11/21 11:58:51;;;;;;;0.00;0.00;;;10.20;99.90;;;;;;5009699;28;20033;-68
2022/11/21 12:01:26;;;;;;;0.00;0.00;;;10.20;99.90;;;;;;5007620;28;20464;-69
2022/11/21 12:04:12;;;;;;;0.00;0.00;;;10.20;99.90;;;;;;5009149;28;20510;-68
2022/11/21 12:07:15;;;;;;;0.00;0.00;;;10.10;99.90;;;;;;5012216;28;20034;-68
2022/11/21 12:10:18;;;;;;;0.00;0.00;;;10.10;99.90;;;;;;5010760;28;20483;-68
2022/11/21 12:13:09;;;;;;;0.00;0.00;;;10.10;99.90;;;;;;5011570;28;20026;-68
2022/11/21 12:15:48;;;;;;;0.00;0.00;;;10.10;99.90;;;;;;5005838;28;20046;-68
2022/11/21 12:18:14;;;;;;;0.00;0.00;;;10.10;99.90;;;;;;5005281;28;20113;-69
2022/11/21 12:21:01;;;;;;;0.00;0.00;;;10.10;99.90;;;;;;5024959;28;20113;-68
2022/11/21 12:23:31;;;;;;;0.00;0.00;;;10.10;99.90;;;;;;5026209;28;20049;-68
2022/11/21 12:26:18;;;;;;;0.00;0.00;;;10.10;99.90;;;;;;5014086;28;20133;-68
2022/11/21 12:28:55;;;;;;;0.00;0.00;;;10.10;99.90;;;;;;5028363;28;20446;-69
2022/11/21 12:31:33;;;;;;;0.00;0.00;;;10.10;99.90;;;;;;5014266;28;20044;-68
2022/11/21 12:34:13;;;;;;;0.00;0.00;;;10.00;99.90;;;;;;5022981;28;20031;-69
2022/11/21 12:36:51;;;;;;;0.00;0.00;;;10.00;99.90;;;;;;5034449;28;20022;-68
2022/11/21 12:39:48;;;;;;;0.00;0.00;;;10.00;99.90;;;;;;5049047;28;20046;-68
2022/11/21 12:42:48;;;;;;;0.00;0.00;;;10.00;99.90;;;;;;5048687;28;20033;-67
2022/11/21 12:45:28;;;;;;;0.00;0.00;;;10.00;99.90;;;;;;5034228;28;20117;-68
2022/11/21 12:54:32;;;;;;;0.00;0.00;;;10.10;99.90;;;;;;5028633;28;20152;-69
2022/11/21 12:57:10;;;;;;;0.00;0.00;;;10.00;99.90;;;;;;5028758;28;20061;-68
2022/11/21 12:59:56;;;;;;;0.00;0.00;;;10.00;99.90;;;;;;5045996;28;20042;-68
2022/11/21 13:03:02;;;;;;;0.00;0.00;;;10.00;99.90;;;;;;5003340;28;20037;-68
2022/11/21 13:05:35;;;;;;;0.00;0.00;;;9.90;99.90;;;;;;5017822;28;20037;-68
2022/11/21 13:08:06;;;;;;;0.00;0.00;;;9.80;99.90;;;;;;5020669;28;20049;-67
2022/11/21 13:10:32;;;;;;;0.00;0.00;;;9.80;99.90;;;;;;5028612;28;20033;-68
2022/11/21 13:13:12;;;;;;;;;;;9.70;99.90;;;;;;5011082;28;20040;-67
2022/11/21 13:16:05;;;;;;;0.00;0.00;;;9.70;99.90;;;;;;5010159;28;19914;-69
2022/11/21 13:18:45;;;;;;;0.00;0.00;;;9.60;99.90;;;;;;5040501;28;20061;-68
2022/11/21 13:21:39;;;;;;;0.00;0.00;;;9.30;99.90;;;;;;5006954;28;20022;-69
2022/11/21 13:24:06;;;;;;;0.00;0.00;;;9.10;99.90;;;;;;5007016;28;20096;-69
2022/11/21 13:26:32;;;;;;;0.00;0.00;;;9.00;99.90;;;;;;5010624;28;20029;-68
2022/11/21 13:29:12;;;;;;;0.00;0.00;;;9.00;99.90;;;;;;5011708;28;20345;-69
2022/11/21 13:31:39;;;;;;;0.00;0.00;;;9.00;99.90;;;;;;5008426;28;20034;-69
2022/11/21 13:34:31;;;;;;;0.00;0.00;;;9.00;99.90;;;;;;5008534;28;20034;-68
2022/11/21 13:36:57;;;;;;;0.00;0.00;;;9.10;99.90;;;;;;5008556;28;20404;-68
2022/11/21 13:39:32;;;;;;;0.00;0.00;;;9.20;99.90;;;;;;5011047;28;20133;-69
2022/11/21 13:44:45;;;;;;;0.00;0.00;;;9.50;99.90;;;;;;5014233;28;20160;-69
2022/11/21 13:47:30;;;;;;;;;;;9.70;99.90;;;;;;5012507;28;20095;-69